Time;durP1;ratioP1;P1;durP2;ratioP2;P2;SDS_P1;SDS_P2;PMS_P1;PMS_P2;Temp;Humidity;BMP_temperature;BMP_pressure;BME280_temperature;BME280_humidity;BME280_pressure;Samples;Min_cycle;Max_cycle;Signal;HPM_P1;HPM_P2
2022/05/12 00:02:05;;;;;;;2.95;2.75;;;18.60;65.60;;;;;;5026282;28;20018;-85
2022/05/12 00:04:32;;;;;;;3.70;2.75;;;18.60;65.60;;;;;;5027313;28;20034;-85
2022/05/12 00:06:58;;;;;;;2.60;2.40;;;18.60;65.60;;;;;;5026177;28;20033;-84
2022/05/12 00:09:25;;;;;;;2.95;2.38;;;18.60;65.60;;;;;;5027747;28;20102;-85
2022/05/12 00:11:52;;;;;;;2.90;2.60;;;18.60;65.60;;;;;;5027847;28;20506;-85
2022/05/12 00:14:18;;;;;;;2.50;2.30;;;18.60;65.60;;;;;;5044069;28;20049;-85
2022/05/12 00:16:44;;;;;;;4.40;2.70;;;18.60;65.70;;;;;;5026913;28;20065;-85
2022/05/12 00:19:10;;;;;;;2.58;2.38;;;18.60;65.90;;;;;;5028515;28;20026;-85
2022/05/12 00:21:36;;;;;;;3.60;3.22;;;18.50;65.80;;;;;;5016933;28;20014;-84
2022/05/12 00:24:02;;;;;;;2.20;2.10;;;18.50;65.90;;;;;;5033153;28;20037;-86
2022/05/12 00:26:31;;;;;;;2.72;2.53;;;18.50;65.90;;;;;;5011539;28;20061;-85
2022/05/12 00:28:58;;;;;;;4.63;2.80;;;18.50;66.00;;;;;;5027105;28;20044;-85
2022/05/12 00:31:26;;;;;;;2.80;2.60;;;18.50;65.90;;;;;;5008201;28;20033;-85
2022/05/12 00:33:51;;;;;;;2.55;2.35;;;18.50;65.90;;;;;;5007347;28;20057;-85
2022/05/12 00:36:18;;;;;;;2.80;2.60;;;18.50;65.80;;;;;;5026223;28;20025;-85
2022/05/12 00:38:44;;;;;;;2.35;2.25;;;18.50;65.70;;;;;;5015342;28;20025;-84
2022/05/12 00:41:11;;;;;;;2.80;2.58;;;18.50;65.70;;;;;;5046677;28;20029;-85
2022/05/12 00:43:39;;;;;;;2.53;2.28;;;18.50;65.70;;;;;;5046727;28;20496;-84
2022/05/12 00:46:08;;;;;;;3.35;2.10;;;18.50;65.80;;;;;;5030128;28;20026;-84
2022/05/12 00:48:36;;;;;;;2.78;2.58;;;18.50;65.70;;;;;;5025765;28;20794;-84
2022/05/12 00:51:02;;;;;;;2.95;2.53;;;18.50;65.60;;;;;;5028162;28;20110;-84
2022/05/12 00:53:32;;;;;;;3.10;2.35;;;18.50;65.60;;;;;;5027093;28;20030;-84
2022/05/12 00:55:59;;;;;;;2.40;2.20;;;18.50;65.40;;;;;;5027627;28;20037;-85
2022/05/12 00:58:27;;;;;;;2.47;2.28;;;18.50;65.30;;;;;;5026548;28;20029;-85
2022/05/12 01:00:52;;;;;;;3.42;2.50;;;18.50;64.90;;;;;;5047047;28;20043;-83
2022/05/12 01:03:25;;;;;;;2.80;2.55;;;18.60;64.60;;;;;;5047461;28;20394;-85
2022/05/12 01:05:52;;;;;;;2.42;2.22;;;18.60;64.30;;;;;;5044766;28;20037;-85
2022/05/12 01:08:19;;;;;;;2.97;2.67;;;18.60;64.20;;;;;;5044452;28;20022;-85
2022/05/12 01:10:52;;;;;;;3.13;2.60;;;18.60;64.30;;;;;;5034408;28;20037;-85
2022/05/12 01:13:19;;;;;;;2.80;2.38;;;18.60;64.30;;;;;;5026845;28;20025;-85
2022/05/12 01:15:51;;;;;;;2.60;2.40;;;18.60;64.30;;;;;;5017944;28;20022;-84
2022/05/12 01:18:18;;;;;;;2.60;2.35;;;18.60;64.40;;;;;;5019493;28;20021;-84
2022/05/12 01:20:45;;;;;;;2.75;2.53;;;18.50;64.60;;;;;;5026564;28;20490;-85
2022/05/12 01:23:36;;;;;;;2.78;2.58;;;18.50;64.90;;;;;;5027864;28;20363;-85
2022/05/12 01:26:13;;;;;;;2.20;2.05;;;18.40;65.10;;;;;;5029607;28;20018;-84
2022/05/12 01:28:38;;;;;;;3.08;2.17;;;18.40;65.20;;;;;;5042197;28;20057;-83
2022/05/12 01:31:05;;;;;;;3.10;2.70;;;18.40;65.60;;;;;;5033251;28;20125;-85
2022/05/12 01:33:31;;;;;;;2.00;1.75;;;18.30;65.90;;;;;;5047231;28;20041;-84
2022/05/12 01:35:57;;;;;;;2.45;2.25;;;18.30;66.10;;;;;;5046969;28;20018;-85
2022/05/12 01:38:23;;;;;;;3.45;2.40;;;18.30;66.20;;;;;;5043121;28;20030;-84
2022/05/12 01:40:49;;;;;;;2.65;2.40;;;18.20;66.20;;;;;;5026912;28;20041;-86
2022/05/12 01:43:17;;;;;;;2.88;2.50;;;18.20;66.30;;;;;;5011642;28;20141;-83
2022/05/12 01:45:43;;;;;;;2.60;2.40;;;18.20;66.40;;;;;;5032659;28;20030;-83
2022/05/12 01:48:12;;;;;;;3.30;2.75;;;18.20;66.50;;;;;;5030615;28;20064;-85
2022/05/12 01:50:40;;;;;;;2.63;2.40;;;18.20;66.60;;;;;;5050101;28;20064;-84
2022/05/12 01:53:09;;;;;;;2.38;2.17;;;18.10;66.80;;;;;;5032733;28;20124;-84
2022/05/12 01:55:35;;;;;;;2.33;2.13;;;18.10;67.00;;;;;;5029391;28;20018;-85
2022/05/12 01:58:01;;;;;;;2.60;2.40;;;18.00;67.20;;;;;;5029979;28;20025;-83
2022/05/12 02:00:29;;;;;;;2.58;2.38;;;18.00;67.30;;;;;;5011834;28;20018;-83
2022/05/12 02:03:00;;;;;;;3.75;2.20;;;18.00;67.50;;;;;;5014070;28;20029;-85
2022/05/12 02:05:28;;;;;;;2.38;2.17;;;17.90;67.70;;;;;;5031250;28;20064;-84
2022/05/12 02:07:54;;;;;;;2.25;2.15;;;17.90;67.80;;;;;;5009912;28;20031;-84
2022/05/12 02:10:24;;;;;;;2.53;2.33;;;17.90;68.60;;;;;;5010583;28;20022;-84
2022/05/12 02:12:50;;;;;;;2.58;2.20;;;17.90;68.10;;;;;;4995376;28;20030;-85
2022/05/12 02:15:16;;;;;;;2.58;2.38;;;17.90;68.10;;;;;;5020669;28;20030;-84
2022/05/12 02:17:42;;;;;;;2.70;2.50;;;17.90;68.10;;;;;;5031233;28;20045;-84
2022/05/12 02:20:11;;;;;;;2.22;2.13;;;17.90;68.10;;;;;;5029762;28;20077;-85
2022/05/12 02:22:37;;;;;;;2.42;2.22;;;17.90;68.10;;;;;;5029873;28;20480;-84
2022/05/12 02:25:04;;;;;;;2.72;2.45;;;17.90;68.00;;;;;;5031049;28;20054;-83
2022/05/12 02:27:30;;;;;;;2.53;2.28;;;17.90;67.90;;;;;;5036890;28;20040;-83
2022/05/12 02:29:56;;;;;;;3.50;2.58;;;17.90;67.90;;;;;;5030145;28;20021;-84
2022/05/12 02:32:22;;;;;;;3.72;2.40;;;17.90;67.80;;;;;;5047858;28;20033;-86
2022/05/12 02:34:48;;;;;;;2.40;2.20;;;18.00;67.80;;;;;;5047499;28;20021;-85
2022/05/12 02:37:13;;;;;;;2.38;2.17;;;18.00;67.60;;;;;;5048273;28;20032;-84
2022/05/12 02:39:40;;;;;;;2.35;2.15;;;18.00;67.50;;;;;;5048451;28;20029;-85
2022/05/12 02:42:09;;;;;;;2.92;2.33;;;18.00;67.50;;;;;;5029566;28;20017;-84
2022/05/12 02:44:36;;;;;;;2.70;2.50;;;18.00;67.40;;;;;;5044679;28;20078;-83
2022/05/12 02:47:03;;;;;;;2.92;2.63;;;18.00;67.40;;;;;;5029640;28;20056;-83
2022/05/12 02:49:30;;;;;;;2.58;2.38;;;18.00;67.30;;;;;;5029840;28;20032;-84
2022/05/12 02:51:56;;;;;;;2.72;2.53;;;18.00;67.40;;;;;;5049084;28;20044;-84
2022/05/12 02:54:21;;;;;;;2.40;2.30;;;18.00;67.40;;;;;;5031566;28;20028;-85
2022/05/12 02:56:49;;;;;;;2.85;2.10;;;18.10;67.40;;;;;;5047083;28;20087;-85
2022/05/12 02:59:17;;;;;;;2.88;2.67;;;18.10;67.30;;;;;;5029996;28;20390;-84
2022/05/12 03:01:43;;;;;;;3.97;2.42;;;18.30;67.10;;;;;;5027040;28;20060;-85
2022/05/12 03:04:09;;;;;;;2.40;2.20;;;18.30;66.60;;;;;;5027544;28;20085;-85
2022/05/12 03:06:35;;;;;;;2.85;2.42;;;18.40;66.30;;;;;;5027334;28;20033;-84
2022/05/12 03:09:01;;;;;;;3.38;2.22;;;18.50;66.00;;;;;;5026912;28;20079;-84
2022/05/12 03:11:28;;;;;;;3.00;2.70;;;18.60;65.80;;;;;;5028175;28;20086;-85
2022/05/12 03:13:54;;;;;;;2.92;2.72;;;18.60;65.60;;;;;;5027827;28;20061;-85
2022/05/12 03:16:20;;;;;;;2.83;2.53;;;18.70;65.50;;;;;;5063890;22;20041;-84
2022/05/12 03:18:49;;;;;;;3.20;2.35;;;18.70;65.30;;;;;;5044173;28;20488;-81
2022/05/12 03:21:16;;;;;;;2.85;2.00;;;18.70;65.20;;;;;;5058109;28;20057;-81
2022/05/12 03:23:42;;;;;;;4.82;2.63;;;18.80;65.20;;;;;;5069307;28;20046;-83
2022/05/12 03:26:09;;;;;;;2.33;2.13;;;18.80;65.20;;;;;;5091247;28;20076;-81
2022/05/12 03:28:35;;;;;;;3.83;2.50;;;18.80;65.10;;;;;;5089173;28;20035;-83
2022/05/12 03:31:01;;;;;;;3.72;2.35;;;18.80;65.10;;;;;;5078950;28;20107;-85
2022/05/12 03:33:27;;;;;;;3.35;2.05;;;18.80;64.90;;;;;;5079765;28;20055;-84
2022/05/12 03:35:53;;;;;;;2.78;2.38;;;18.80;65.00;;;;;;5073501;28;20032;-84
2022/05/12 03:38:20;;;;;;;3.42;2.42;;;18.90;64.90;;;;;;5061597;28;20061;-82
2022/05/12 03:40:46;;;;;;;2.35;1.98;;;18.90;64.70;;;;;;5076025;28;20009;-81
2022/05/12 03:44:46;;;;;;;7.78;2.22;;;18.90;64.60;;;;;;5076592;28;20081;-81
2022/05/12 03:45:58;;;;;;;3.33;2.33;;;18.90;64.60;;;;;;5090856;28;20080;-81
2022/05/12 03:48:24;;;;;;;2.20;2.00;;;18.90;64.40;;;;;;5061063;28;20029;-84
2022/05/12 03:50:50;;;;;;;4.53;1.83;;;19.00;64.10;;;;;;5078169;28;20488;-85
2022/05/12 03:53:16;;;;;;;5.13;1.83;;;19.10;64.00;;;;;;5062875;28;20029;-85
2022/05/12 03:55:42;;;;;;;2.95;2.15;;;19.10;63.80;;;;;;5072220;28;20016;-83
2022/05/12 03:58:08;;;;;;;2.63;2.10;;;19.10;63.70;;;;;;5090610;28;20153;-82
2022/05/12 04:00:34;;;;;;;2.88;1.98;;;19.10;63.60;;;;;;5097028;28;20025;-80
2022/05/12 04:03:00;;;;;;;2.90;2.22;;;19.10;63.50;;;;;;5079641;28;20064;-81
2022/05/12 04:05:28;;;;;;;3.15;2.28;;;19.10;63.50;;;;;;5096123;28;20042;-82
2022/05/12 04:07:54;;;;;;;3.53;2.00;;;19.10;63.40;;;;;;5095428;28;20027;-83
2022/05/12 04:10:21;;;;;;;4.80;2.20;;;19.10;63.30;;;;;;5096250;28;20052;-84
2022/05/12 04:12:48;;;;;;;3.10;2.10;;;19.10;63.40;;;;;;5096624;28;20040;-82
2022/05/12 04:15:15;;;;;;;2.33;2.10;;;19.00;63.10;;;;;;5096121;28;20032;-82
2022/05/12 04:17:42;;;;;;;3.95;1.90;;;19.10;63.00;;;;;;5089536;28;20400;-85
2022/05/12 04:20:12;;;;;;;4.28;1.92;;;19.20;62.90;;;;;;5079507;28;20040;-86
2022/05/12 04:22:40;;;;;;;2.33;1.95;;;19.20;62.70;;;;;;5071314;28;20530;-85
2022/05/12 04:25:06;;;;;;;3.33;2.20;;;19.30;62.50;;;;;;5081850;28;20081;-85
2022/05/12 04:27:39;;;;;;;3.35;1.90;;;19.40;62.30;;;;;;5081087;28;20050;-85
2022/05/12 04:30:07;;;;;;;2.33;2.03;;;19.40;62.00;;;;;;5062156;28;20032;-85
2022/05/12 04:32:33;;;;;;;2.70;2.05;;;19.60;61.60;;;;;;5080429;28;20102;-86
2022/05/12 04:35:14;;;;;;;4.05;2.13;;;19.70;61.30;;;;;;5078196;28;20025;-83
2022/05/12 04:37:47;;;;;;;4.53;2.20;;;19.80;60.70;;;;;;5080369;28;20104;-82
2022/05/12 04:40:22;;;;;;;3.05;2.13;;;19.90;60.40;;;;;;5070991;28;20073;-82
2022/05/12 04:42:49;;;;;;;3.83;2.40;;;20.00;60.20;;;;;;5059147;28;20021;-82
2022/05/12 04:45:17;;;;;;;3.38;1.85;;;20.10;59.80;;;;;;5040991;28;20069;-84
2022/05/12 04:47:43;;;;;;;3.75;2.08;;;20.30;59.30;;;;;;5040215;28;20032;-85
2022/05/12 04:50:13;;;;;;;5.60;1.75;;;20.40;59.00;;;;;;5070875;28;20042;-84
2022/05/12 04:52:39;;;;;;;2.80;2.00;;;20.70;58.50;;;;;;5049940;28;20025;-83
2022/05/12 04:55:06;;;;;;;4.45;1.80;;;20.80;58.10;;;;;;5061935;28;20061;-84
2022/05/12 04:57:41;;;;;;;2.10;1.67;;;21.00;57.70;;;;;;5075691;28;20077;-84
2022/05/12 05:00:10;;;;;;;2.08;1.90;;;21.20;57.20;;;;;;5061146;28;20064;-85
2022/05/12 05:02:36;;;;;;;4.72;2.28;;;21.30;56.60;;;;;;5078053;28;20381;-83
2022/05/12 05:05:04;;;;;;;2.20;1.98;;;21.50;56.20;;;;;;5082641;28;20056;-86
2022/05/12 05:07:30;;;;;;;4.68;2.25;;;21.50;55.80;;;;;;5077001;28;20032;-85
2022/05/12 05:09:56;;;;;;;2.40;1.90;;;21.60;55.60;;;;;;5176782;22;20524;-84
2022/05/12 05:12:21;;;;;;;3.72;1.92;;;21.70;55.40;;;;;;5022125;28;20124;-88
2022/05/12 05:14:47;;;;;;;6.45;2.28;;;21.80;55.10;;;;;;5042447;28;20456;-84
2022/05/12 05:17:13;;;;;;;7.43;2.22;;;21.80;54.60;;;;;;5038951;28;20081;-84
2022/05/12 05:19:41;;;;;;;2.88;2.00;;;21.90;54.60;;;;;;5042010;28;20080;-86
2022/05/12 05:22:07;;;;;;;3.05;1.88;;;21.80;54.60;;;;;;5033000;28;20013;-83
2022/05/12 05:24:34;;;;;;;3.08;1.98;;;21.70;54.60;;;;;;5037865;28;20017;-87
2022/05/12 05:27:00;;;;;;;3.28;2.40;;;21.70;54.70;;;;;;5006548;28;20022;-85
2022/05/12 05:29:26;;;;;;;6.15;2.50;;;21.60;54.50;;;;;;5026119;28;20026;-86
2022/05/12 05:31:53;;;;;;;9.50;2.53;;;21.70;54.60;;;;;;5042479;28;20024;-84
2022/05/12 05:34:18;;;;;;;6.00;2.25;;;21.70;54.10;;;;;;5041938;28;20109;-86
2022/05/12 05:36:54;;;;;;;4.78;2.70;;;22.00;54.20;;;;;;5042611;28;20057;-86
2022/05/12 05:39:22;;;;;;;12.70;3.35;;;22.40;53.40;;;;;;5022811;28;20076;-86
2022/05/12 05:41:49;;;;;;;11.90;3.65;;;22.60;52.60;;;;;;5026543;28;20081;-85
2022/05/12 05:44:15;;;;;;;12.98;2.95;;;22.70;52.50;;;;;;5043197;28;20482;-86
2022/05/12 05:46:41;;;;;;;11.82;3.30;;;22.70;52.20;;;;;;5041637;28;20033;-85
2022/05/12 05:49:06;;;;;;;15.98;3.35;;;22.80;51.80;;;;;;5042343;28;20433;-86
2022/05/12 05:54:16;;;;;;;11.35;3.47;;;23.10;51.40;;;;;;5043050;28;20175;-86
2022/05/12 05:56:43;;;;;;;6.15;2.47;;;23.40;50.70;;;;;;5042369;28;20090;-85
2022/05/12 05:59:09;;;;;;;6.95;2.70;;;23.50;50.20;;;;;;5042546;28;20117;-86
2022/05/12 06:01:35;;;;;;;8.38;2.65;;;23.90;50.30;;;;;;5046675;28;20036;-84
2022/05/12 06:04:00;;;;;;;6.38;1.98;;;24.70;48.60;;;;;;5042269;28;20386;-85
2022/05/12 06:06:27;;;;;;;3.60;2.28;;;25.60;47.60;;;;;;5041318;28;20442;-84
2022/05/12 06:08:53;;;;;;;5.78;2.65;;;26.20;46.60;;;;;;5024848;28;20079;-84
2022/05/12 06:11:19;;;;;;;8.20;3.38;;;26.30;45.90;;;;;;5054584;28;20037;-84
2022/05/12 06:13:47;;;;;;;10.13;3.42;;;26.20;45.70;;;;;;5058980;28;20092;-85
2022/05/12 06:16:14;;;;;;;6.97;2.60;;;26.00;46.00;;;;;;5041657;28;20010;-83
2022/05/12 06:18:41;;;;;;;6.57;2.60;;;25.70;46.30;;;;;;5058679;28;20068;-82
2022/05/12 06:21:12;;;;;;;6.45;2.47;;;25.20;47.20;;;;;;5058381;28;20018;-83
2022/05/12 06:23:38;;;;;;;9.32;2.17;;;25.00;47.40;;;;;;5055460;28;20061;-86
2022/05/12 06:26:06;;;;;;;3.63;2.28;;;24.80;47.50;;;;;;5027552;28;20079;-86
2022/05/12 06:28:32;;;;;;;7.60;3.03;;;24.50;48.20;;;;;;5025810;28;20022;-84
2022/05/12 06:30:58;;;;;;;3.40;2.28;;;24.50;48.80;;;;;;5041089;28;20477;-84
2022/05/12 06:33:23;;;;;;;6.78;2.22;;;24.70;48.40;;;;;;5043913;28;20179;-86
2022/05/12 06:35:52;;;;;;;5.10;2.53;;;24.90;47.90;;;;;;5047157;28;20029;-87
2022/05/12 06:38:18;;;;;;;5.50;2.38;;;24.90;47.60;;;;;;5048806;28;20026;-86
2022/05/12 06:40:44;;;;;;;7.75;2.50;;;25.10;48.30;;;;;;5046569;28;20600;-86
2022/05/12 06:43:09;;;;;;;10.00;2.70;;;27.10;46.10;;;;;;5040355;28;20029;-85
2022/05/12 06:45:36;;;;;;;9.57;2.88;;;28.80;43.60;;;;;;5057370;28;20013;-80
2022/05/12 06:48:01;;;;;;;11.52;2.97;;;29.90;41.80;;;;;;5039536;28;20014;-83
2022/05/12 06:50:29;;;;;;;6.82;2.33;;;30.80;40.90;;;;;;5045157;28;20030;-84
2022/05/12 06:52:59;;;;;;;12.85;3.20;;;31.40;39.70;;;;;;5046482;28;20048;-84
2022/05/12 06:55:29;;;;;;;9.27;2.30;;;32.50;38.70;;;;;;5028990;28;20081;-82
2022/05/12 06:57:55;;;;;;;2.42;2.13;;;33.60;37.00;;;;;;5029159;28;20034;-83
2022/05/12 07:00:21;;;;;;;5.32;2.28;;;32.70;37.40;;;;;;5045928;28;20052;-84
2022/05/12 07:02:48;;;;;;;4.93;2.63;;;31.60;38.10;;;;;;5028572;28;20041;-84
2022/05/12 07:05:16;;;;;;;4.43;2.38;;;30.10;39.60;;;;;;5046146;28;20053;-83
2022/05/12 07:07:43;;;;;;;7.00;2.60;;;28.40;41.60;;;;;;5029021;28;20025;-84
2022/05/12 07:10:11;;;;;;;3.40;2.20;;;26.90;43.10;;;;;;5047481;28;20061;-82
2022/05/12 07:12:37;;;;;;;5.45;2.35;;;25.80;44.90;;;;;;5053400;28;20029;-84
2022/05/12 07:15:04;;;;;;;11.55;2.88;;;25.10;46.00;;;;;;5029357;28;20017;-83
2022/05/12 07:17:32;;;;;;;6.88;2.40;;;24.80;46.70;;;;;;5046239;28;20103;-81
2022/05/12 07:28:12;;;;;;;5.35;2.25;;;25.10;46.40;;;;;;5053370;28;20063;-82
2022/05/12 07:33:22;;;;;;;8.05;2.78;;;24.90;46.80;;;;;;5057071;28;20020;-81
2022/05/12 07:35:48;;;;;;;6.25;2.63;;;24.60;46.90;;;;;;5057071;28;20077;-82
2022/05/12 07:38:14;;;;;;;5.88;2.50;;;24.40;47.20;;;;;;5056945;28;20060;-82
2022/05/12 07:40:40;;;;;;;4.03;2.30;;;24.20;47.40;;;;;;5057057;28;20028;-82
2022/05/12 07:43:06;;;;;;;12.10;2.50;;;24.00;48.00;;;;;;5054606;28;20022;-83
2022/05/12 07:45:32;;;;;;;7.75;2.78;;;24.10;48.10;;;;;;5052629;28;20080;-83
2022/05/12 07:47:58;;;;;;;13.85;2.97;;;24.00;48.30;;;;;;5050452;28;20025;-83
2022/05/12 07:50:25;;;;;;;5.50;2.20;;;24.00;48.30;;;;;;5046755;28;20060;-84
2022/05/12 07:52:52;;;;;;;7.85;2.50;;;24.00;48.20;;;;;;5046364;28;20498;-83
2022/05/12 07:55:17;;;;;;;7.28;3.00;;;24.10;48.60;;;;;;5049126;28;20036;-83
2022/05/12 07:57:43;;;;;;;5.40;2.40;;;24.30;48.40;;;;;;5027646;28;20025;-83
2022/05/12 08:00:10;;;;;;;5.38;2.47;;;24.40;48.10;;;;;;5047385;28;20032;-83
2022/05/12 08:02:36;;;;;;;4.18;1.92;;;24.60;48.00;;;;;;5026240;28;20025;-83
2022/05/12 08:05:04;;;;;;;3.17;2.03;;;24.70;47.80;;;;;;5025122;28;20036;-81
2022/05/12 08:07:31;;;;;;;4.60;2.10;;;24.80;47.50;;;;;;5005956;28;20053;-81
2022/05/12 08:09:58;;;;;;;4.85;2.65;;;25.00;47.30;;;;;;5044955;28;20039;-83
2022/05/12 08:12:24;;;;;;;5.40;1.90;;;25.00;47.20;;;;;;5028140;28;20496;-84
2022/05/12 08:14:50;;;;;;;3.72;2.00;;;25.00;47.40;;;;;;5044786;28;20045;-83
2022/05/12 08:17:16;;;;;;;2.58;2.38;;;25.10;47.10;;;;;;5042712;28;20029;-83
2022/05/12 08:19:42;;;;;;;5.35;2.30;;;25.00;47.40;;;;;;5025571;28;20045;-83
2022/05/12 08:22:07;;;;;;;2.92;2.10;;;25.10;47.50;;;;;;5044103;28;20029;-83
2022/05/12 08:24:33;;;;;;;2.65;1.85;;;25.20;47.40;;;;;;5043534;28;20079;-82
2022/05/12 08:26:59;;;;;;;3.72;1.70;;;25.10;47.70;;;;;;5044792;28;20029;-84
2022/05/12 08:29:25;;;;;;;2.78;2.00;;;25.20;47.70;;;;;;5025376;28;20475;-83
2022/05/12 08:31:50;;;;;;;7.35;2.03;;;25.00;47.60;;;;;;5045908;28;20029;-81
2022/05/12 08:34:16;;;;;;;3.88;2.35;;;25.00;47.90;;;;;;5033648;28;20043;-83
2022/05/12 08:36:42;;;;;;;4.00;2.13;;;25.00;48.20;;;;;;5028413;28;20022;-84
2022/05/12 08:39:08;;;;;;;2.78;2.53;;;25.00;48.40;;;;;;5024836;28;20465;-83
2022/05/12 08:41:38;;;;;;;4.47;2.70;;;25.10;48.50;;;;;;5044837;28;20037;-83
2022/05/12 08:44:13;;;;;;;4.80;3.20;;;25.10;48.80;;;;;;5026213;28;20073;-85
2022/05/12 08:46:41;;;;;;;2.47;2.20;;;25.30;48.80;;;;;;5044713;28;20289;-85
2022/05/12 08:49:17;;;;;;;3.95;2.60;;;25.30;48.70;;;;;;5045758;28;20081;-83
2022/05/12 08:51:46;;;;;;;6.85;2.47;;;25.40;48.80;;;;;;5029645;28;20021;-85
2022/05/12 08:54:16;;;;;;;4.00;3.10;;;25.40;48.30;;;;;;5047673;28;20048;-83
2022/05/12 08:56:43;;;;;;;2.70;2.30;;;25.50;48.60;;;;;;5050522;28;20113;-83
2022/05/12 08:59:09;;;;;;;4.25;2.80;;;25.60;48.30;;;;;;5049706;28;20028;-83
2022/05/12 09:02:03;;;;;;;7.50;3.00;;;25.70;48.10;;;;;;5047786;28;20029;-82
2022/05/12 09:05:05;;;;;;;6.45;3.08;;;25.70;47.90;;;;;;5028619;28;20056;-81
2022/05/12 09:07:38;;;;;;;8.30;2.53;;;25.70;48.60;;;;;;5014103;28;20037;-82
2022/05/12 09:10:33;;;;;;;3.42;3.00;;;25.70;48.80;;;;;;5029059;28;20040;-82
2022/05/12 09:13:03;;;;;;;5.47;3.70;;;25.70;48.50;;;;;;5021704;28;20060;-81
2022/05/12 09:15:35;;;;;;;7.47;3.33;;;25.90;48.70;;;;;;5048602;28;20024;-82
2022/05/12 09:18:05;;;;;;;6.15;2.63;;;26.10;48.40;;;;;;5055692;28;20048;-82
2022/05/12 09:20:34;;;;;;;4.47;2.58;;;26.20;48.10;;;;;;5054837;28;20405;-83
2022/05/12 09:23:01;;;;;;;3.17;2.67;;;26.30;48.10;;;;;;5051539;28;20025;-82
2022/05/12 09:25:40;;;;;;;5.65;2.80;;;26.30;47.90;;;;;;5038027;28;20006;-86
2022/05/12 09:28:34;;;;;;;5.07;2.30;;;26.50;48.10;;;;;;5059220;28;20042;-82
2022/05/12 09:31:17;;;;;;;2.80;2.60;;;26.50;47.80;;;;;;5053378;28;20028;-82
2022/05/12 09:33:48;;;;;;;6.88;3.03;;;26.70;48.00;;;;;;5049725;28;20076;-81
2022/05/12 09:36:17;;;;;;;7.18;3.53;;;26.80;47.60;;;;;;5047302;28;20033;-83
2022/05/12 09:38:45;;;;;;;4.65;2.58;;;26.80;47.70;;;;;;5032128;28;20393;-81
2022/05/12 09:41:23;;;;;;;5.30;2.72;;;27.00;47.50;;;;;;5048806;28;20048;-84
2022/05/12 09:43:51;;;;;;;8.70;3.20;;;27.20;47.10;;;;;;5047933;28;20026;-82
2022/05/12 09:46:16;;;;;;;6.78;2.75;;;27.40;46.90;;;;;;5050483;28;20035;-82
2022/05/12 09:48:43;;;;;;;7.38;3.30;;;27.80;46.70;;;;;;5033453;28;20394;-83
2022/05/12 09:51:13;;;;;;;11.65;3.90;;;28.20;45.70;;;;;;5049880;28;20056;-82
2022/05/12 09:53:39;;;;;;;10.23;3.25;;;28.30;45.00;;;;;;5028716;28;20026;-82
2022/05/12 09:56:18;;;;;;;5.43;2.72;;;28.00;45.20;;;;;;5025508;28;20064;-84
2022/05/12 09:59:01;;;;;;;12.73;3.60;;;27.70;45.40;;;;;;5057766;28;20002;-81
2022/05/12 10:01:30;;;;;;;8.80;3.40;;;27.80;46.00;;;;;;5059642;28;20023;-80
2022/05/12 10:09:53;;;;;;;4.68;2.78;;;28.50;44.80;;;;;;5046469;28;20467;-81
2022/05/12 10:12:31;;;;;;;5.10;2.70;;;28.80;44.60;;;;;;5050691;28;20021;-83
2022/05/12 10:15:23;;;;;;;7.25;3.45;;;28.90;44.00;;;;;;5042735;28;20028;-82
2022/05/12 10:18:01;;;;;;;4.72;2.75;;;28.50;44.30;;;;;;5022933;28;20376;-82
2022/05/12 10:20:28;;;;;;;4.68;2.65;;;28.30;44.40;;;;;;5039629;28;20033;-82
2022/05/12 10:23:08;;;;;;;5.60;2.25;;;28.30;44.60;;;;;;5044464;28;20199;-82
2022/05/12 10:26:01;;;;;;;6.05;2.60;;;28.10;44.50;;;;;;5046728;28;20049;-81
2022/05/12 10:28:50;;;;;;;7.15;2.78;;;27.80;44.50;;;;;;5048413;28;20025;-82
2022/05/12 10:31:25;;;;;;;5.30;2.65;;;27.90;43.80;;;;;;5045709;28;20107;-81
2022/05/12 10:34:13;;;;;;;6.60;2.63;;;28.00;43.30;;;;;;5045348;28;20032;-81
2022/05/12 10:37:04;;;;;;;7.85;2.58;;;28.10;43.20;;;;;;5027885;28;20026;-81
2022/05/12 10:39:44;;;;;;;4.97;2.05;;;28.00;43.00;;;;;;5044693;28;20018;-82
2022/05/12 10:43:06;;;;;;;5.85;2.88;;;27.90;43.20;;;;;;5047002;28;20025;-81
2022/05/12 10:45:43;;;;;;;4.85;2.55;;;28.00;43.00;;;;;;5013904;28;20049;-81
2022/05/12 10:48:47;;;;;;;8.63;2.50;;;28.10;42.70;;;;;;5046362;28;20021;-81
2022/05/12 10:51:45;;;;;;;5.50;3.00;;;28.00;42.60;;;;;;5047137;28;20068;-80
2022/05/12 10:54:38;;;;;;;3.10;2.40;;;28.00;42.90;;;;;;5027261;28;20009;-81
2022/05/12 10:57:31;;;;;;;7.43;2.60;;;28.00;42.80;;;;;;5032516;28;20108;-81
2022/05/12 11:00:08;;;;;;;5.10;2.15;;;28.10;43.00;;;;;;5046770;28;20032;-82
2022/05/12 11:02:50;;;;;;;5.65;2.47;;;28.30;43.00;;;;;;5028885;28;20538;-82
2022/05/12 11:05:22;;;;;;;6.80;2.60;;;28.60;42.60;;;;;;5028111;28;20037;-81
2022/05/12 11:08:10;;;;;;;6.45;3.53;;;28.70;42.50;;;;;;5047034;28;20421;-81
2022/05/12 11:10:46;;;;;;;3.35;2.25;;;28.70;42.60;;;;;;5042248;28;20065;-81
2022/05/12 11:13:27;;;;;;;4.53;2.42;;;28.60;42.00;;;;;;5050321;28;20474;-82
2022/05/12 11:15:57;;;;;;;3.80;2.33;;;28.80;41.80;;;;;;5024716;28;20025;-82
2022/05/12 11:19:03;;;;;;;3.95;2.53;;;29.00;42.10;;;;;;5026957;28;20031;-83
2022/05/12 11:21:30;;;;;;;5.43;2.67;;;29.10;42.50;;;;;;5043276;28;20037;-83
2022/05/12 11:24:11;;;;;;;6.50;2.30;;;29.20;42.20;;;;;;5046933;28;20021;-83
2022/05/12 11:26:40;;;;;;;4.35;2.88;;;29.50;41.90;;;;;;5031550;28;20080;-82
2022/05/12 11:32:18;;;;;;;5.85;2.70;;;29.60;41.30;;;;;;5051847;28;20053;-82
2022/05/12 11:34:49;;;;;;;5.22;2.55;;;29.60;41.30;;;;;;5046243;28;20478;-81
2022/05/12 11:37:39;;;;;;;4.63;3.10;;;29.40;41.80;;;;;;5047490;28;20052;-82
2022/05/12 11:40:29;;;;;;;3.97;2.50;;;29.10;42.10;;;;;;5046436;28;20260;-82
2022/05/12 11:45:49;;;;;;;5.72;2.78;;;28.60;43.10;;;;;;5045830;28;20517;-81
2022/05/12 11:48:15;;;;;;;6.55;2.40;;;28.50;43.00;;;;;;5045776;28;20020;-82
2022/05/12 11:50:49;;;;;;;6.65;3.20;;;28.50;43.20;;;;;;5045546;28;20022;-82
2022/05/12 11:53:24;;;;;;;5.15;2.60;;;28.40;43.30;;;;;;5045192;28;20029;-83
2022/05/12 11:56:07;;;;;;;4.88;2.95;;;28.70;42.90;;;;;;5043750;28;20018;-85
2022/05/12 11:58:42;;;;;;;8.88;2.97;;;28.60;43.10;;;;;;5044809;28;20013;-83
2022/05/12 12:01:24;;;;;;;4.25;2.95;;;28.60;43.10;;;;;;5045409;28;20149;-83
2022/05/12 12:04:14;;;;;;;8.75;3.22;;;28.80;43.20;;;;;;5045767;28;20036;-83
2022/05/12 12:07:16;;;;;;;6.03;2.88;;;28.90;43.10;;;;;;5027994;28;20061;-83
2022/05/12 12:09:44;;;;;;;5.47;2.83;;;29.00;43.20;;;;;;5029644;28;20061;-85
2022/05/12 12:12:31;;;;;;;7.68;3.80;;;29.00;42.80;;;;;;5048306;28;20029;-84
2022/05/12 12:15:02;;;;;;;8.73;2.95;;;28.90;43.00;;;;;;5029665;28;20061;-83
2022/05/12 12:17:36;;;;;;;11.10;3.83;;;28.90;42.70;;;;;;5047174;28;20029;-83
2022/05/12 12:20:28;;;;;;;3.88;3.15;;;28.90;43.40;;;;;;5045724;28;20021;-83
2022/05/12 12:22:55;;;;;;;;;;;29.00;43.50;;;;;;5040343;28;20022;-82
2022/05/12 12:25:36;;;;;;;5.47;3.08;;;29.30;42.80;;;;;;5045506;28;19912;-83
2022/05/12 12:28:22;;;;;;;5.37;3.43;;;29.50;42.40;;;;;;5029557;28;20048;-83
2022/05/12 12:30:48;;;;;;;7.35;3.55;;;29.40;42.30;;;;;;5030310;28;20052;-83
2022/05/12 12:33:29;;;;;;;5.10;2.70;;;29.40;42.60;;;;;;5046176;28;20213;-84
2022/05/12 12:36:27;;;;;;;5.13;3.40;;;29.40;42.90;;;;;;5046551;28;20022;-84
2022/05/12 12:38:53;;;;;;;8.02;3.03;;;29.50;42.50;;;;;;5044759;28;20079;-83
2022/05/12 12:41:29;;;;;;;9.55;3.13;;;29.20;42.50;;;;;;5026441;28;20041;-83
2022/05/12 12:44:03;;;;;;;14.57;4.68;;;29.20;42.80;;;;;;5043144;28;20086;-83
2022/05/12 12:46:55;;;;;;;7.55;3.30;;;29.30;42.00;;;;;;5040857;28;20022;-84
2022/05/12 12:49:47;;;;;;;;;;;29.40;41.60;;;;;;5019879;28;20030;-84
2022/05/12 12:52:15;;;;;;;5.00;2.80;;;29.40;41.90;;;;;;5037122;28;19936;-83
2022/05/12 12:57:59;;;;;;;7.43;3.38;;;29.80;41.10;;;;;;5018949;28;20045;-83
2022/05/12 13:00:36;;;;;;;10.88;3.25;;;30.20;40.80;;;;;;5018320;28;20030;-84
2022/05/12 13:03:18;;;;;;;8.90;3.45;;;30.30;40.20;;;;;;5018012;28;20022;-84
2022/05/12 13:05:44;;;;;;;8.77;3.10;;;30.40;40.40;;;;;;5023954;28;20383;-84
2022/05/12 13:08:28;;;;;;;8.80;4.72;;;30.60;39.80;;;;;;5041108;28;20028;-84
2022/05/12 13:11:00;;;;;;;6.50;3.13;;;30.60;39.60;;;;;;5022122;28;20041;-84
2022/05/12 13:13:27;;;;;;;10.73;3.03;;;30.50;39.80;;;;;;5038896;28;20143;-84
2022/05/12 13:15:59;;;;;;;3.25;2.95;;;30.60;40.10;;;;;;5021111;28;19998;-84
2022/05/12 13:18:35;;;;;;;5.80;3.00;;;30.60;40.20;;;;;;5038602;28;20032;-83
2022/05/12 13:21:03;;;;;;;6.97;3.30;;;30.70;40.20;;;;;;5038165;28;19998;-83
2022/05/12 13:23:41;;;;;;;2.85;2.65;;;30.80;40.20;;;;;;5039404;28;20025;-83
2022/05/12 13:26:08;;;;;;;5.05;3.15;;;30.60;39.80;;;;;;5038483;28;20026;-84
2022/05/12 13:28:37;;;;;;;5.30;3.05;;;30.40;39.90;;;;;;5039581;28;20022;-84
2022/05/12 13:31:40;;;;;;;3.53;2.70;;;30.20;39.80;;;;;;5047908;28;20017;-84
2022/05/12 13:34:19;;;;;;;4.18;2.50;;;30.20;39.60;;;;;;5047629;28;20029;-82